createdAt,value
2017-04-13T00:00:37.096Z,48.35
2017-04-13T00:01:37.119Z,47.87
2017-04-13T00:02:37.397Z,47.19
2017-04-13T00:03:37.178Z,47.58
2017-04-13T00:04:37.210Z,47.96
2017-04-13T00:05:36.918Z,48.16
2017-04-13T00:06:37.260Z,48.06
2017-04-13T00:07:37.541Z,48.16
2017-04-13T00:08:36.995Z,48.54
2017-04-13T00:09:37.366Z,47.38
2017-04-13T00:10:37.372Z,47.77
2017-04-13T00:11:37.087Z,48.06
2017-04-13T00:12:37.675Z,48.06
2017-04-13T00:13:37.454Z,47.67
2017-04-13T00:14:37.482Z,47.96
2017-04-13T00:15:37.511Z,47.58
2017-04-13T00:16:37.539Z,47.19
2017-04-13T00:17:37.860Z,47.38
2017-04-13T00:18:37.280Z,47.48
2017-04-13T00:19:37.618Z,47.67
2017-04-13T00:20:37.643Z,47.38
2017-04-13T00:21:37.360Z,48.35
2017-04-13T00:22:37.695Z,47.67
2017-04-13T00:23:37.418Z,48.54
2017-04-13T00:24:37.448Z,48.06
2017-04-13T00:25:37.786Z,47.77
2017-04-13T00:26:37.809Z,48.06
2017-04-13T00:27:37.841Z,48.06
2017-04-13T00:28:37.871Z,47.77
2017-04-13T00:29:37.894Z,47.48
2017-04-13T00:30:37.922Z,47.77
2017-04-13T00:31:37.951Z,47.67
2017-04-13T00:32:37.977Z,48.06
2017-04-13T00:33:38.013Z,47.29
2017-04-13T00:34:38.041Z,47.58
2017-04-13T00:35:38.059Z,47.38
2017-04-13T00:36:46.381Z,47.58
2017-04-13T00:37:46.668Z,47.48
2017-04-13T00:38:46.430Z,47.55
2017-04-13T00:39:46.458Z,47.48
2017-04-13T00:40:46.181Z,47.67
2017-04-13T00:41:46.510Z,47.36
2017-04-13T00:42:46.496Z,47.55
2017-04-13T00:43:46.576Z,47.36
2017-04-13T00:44:46.609Z,47.48
2017-04-13T00:45:46.317Z,47.48
2017-04-13T00:46:46.351Z,47.67
2017-04-13T00:47:46.626Z,47.29
2017-04-13T00:48:46.708Z,47.38
2017-04-13T00:49:46.434Z,47.48
2017-04-13T00:50:46.469Z,47.27
2017-04-13T00:51:46.826Z,47.48
2017-04-13T00:52:47.107Z,47.48
2017-04-13T00:53:46.883Z,47.38
2017-04-13T00:54:46.588Z,47.58
2017-04-13T00:55:46.938Z,47.67
2017-04-13T00:56:46.654Z,47.67
2017-04-13T00:57:47.248Z,47.67
2017-04-13T00:58:47.023Z,47.29
2017-04-13T00:59:46.736Z,47.77
2017-04-13T01:00:47.071Z,47.67
2017-04-13T01:01:47.102Z,47.58
2017-04-13T01:02:47.382Z,47.58
2017-04-13T01:03:46.846Z,47.67
2017-04-13T01:04:47.192Z,47.38
2017-04-13T01:05:47.207Z,47.29
2017-04-13T01:06:47.233Z,47.27
2017-04-13T01:07:47.211Z,47.48
2017-04-13T01:08:47.295Z,47.29
2017-04-13T01:09:47.318Z,47.09
2017-04-13T01:10:47.040Z,47.17
2017-04-13T01:11:47.373Z,47.48
2017-04-13T01:12:47.657Z,47.07
2017-04-13T01:13:47.435Z,46.97
2017-04-13T01:14:47.459Z,47.29
2017-04-13T01:15:47.497Z,47.38
2017-04-13T01:16:47.512Z,47.27
2017-04-13T01:17:47.486Z,47.27
2017-04-13T01:18:47.574Z,47.09
2017-04-13T01:19:47.591Z,47.19
2017-04-13T01:20:47.627Z,47.65
2017-04-13T01:21:47.648Z,47.75
2017-04-13T01:22:47.933Z,47.36
2017-04-13T01:23:47.711Z,47.45
2017-04-13T01:24:47.738Z,47.27
2017-04-13T01:25:47.769Z,47.38
2017-04-13T01:26:47.792Z,47.55
2017-04-13T01:27:48.068Z,47.17
2017-04-13T01:28:47.846Z,47.27
2017-04-13T01:29:47.875Z,47.85
2017-04-13T01:30:47.900Z,47.65
2017-04-13T01:31:47.611Z,47.17
2017-04-13T01:32:48.214Z,47.27
2017-04-13T01:33:47.990Z,47.17
2017-04-13T01:34:48.009Z,47.55
2017-04-13T01:35:47.726Z,47.07
2017-04-13T01:36:47.744Z,47.17
2017-04-13T01:37:48.344Z,47.07
2017-04-13T01:38:48.127Z,47.17
2017-04-13T01:39:47.834Z,47.27
2017-04-13T01:40:48.174Z,47.27
2017-04-13T01:41:47.887Z,47.17
2017-04-13T01:42:48.483Z,47.27
2017-04-13T01:43:47.941Z,47.27
2017-04-13T01:44:48.286Z,47.07
2017-04-13T01:45:48.310Z,47.17
2017-04-13T01:46:48.344Z,47.07
2017-04-13T01:47:48.311Z,47.36
2017-04-13T01:48:48.084Z,47.36
2017-04-13T01:49:48.421Z,46.88
2017-04-13T01:50:48.140Z,46.59
2017-04-13T01:51:48.476Z,46.88
2017-04-13T01:52:48.756Z,46.97
2017-04-13T01:53:48.534Z,46.88
2017-04-13T01:54:48.564Z,46.3
2017-04-13T01:55:48.275Z,46.78
2017-04-13T01:56:48.616Z,46.4
2017-04-13T01:57:48.896Z,46.88
2017-04-13T01:58:48.358Z,46.4
2017-04-13T01:59:48.700Z,46.49
2017-04-13T02:00:48.413Z,46.3
2017-04-13T02:01:48.756Z,46.69
2017-04-13T02:02:48.779Z,46.4
2017-04-13T02:03:48.804Z,46.59
2017-04-13T02:04:48.835Z,46.78
2017-04-13T02:05:48.861Z,46.4
2017-04-13T02:06:48.894Z,46.59
2017-04-13T02:07:48.603Z,46.97
2017-04-13T02:08:48.623Z,47.36
2017-04-13T02:09:48.973Z,46.69
2017-04-13T02:10:48.684Z,46.4
2017-04-13T02:11:49.027Z,46.4
2017-04-13T02:12:49.060Z,46.59
2017-04-13T02:13:49.080Z,46.59
2017-04-13T02:14:49.123Z,46.59
2017-04-13T02:15:48.826Z,46.49
2017-04-13T02:16:49.162Z,46.49
2017-04-13T02:17:49.194Z,46.4
2017-04-13T02:18:49.219Z,46.4
2017-04-13T02:19:49.244Z,46.49
2017-04-13T02:20:48.960Z,46.59
2017-04-13T02:21:48.990Z,46.49
2017-04-13T02:22:49.322Z,46.4
2017-04-13T02:23:49.355Z,46.49
2017-04-13T02:24:49.380Z,46.49
2017-04-13T02:25:49.413Z,46.4
2017-04-13T02:26:49.438Z,46.78
2017-04-13T02:27:49.459Z,46.3
2017-04-13T02:28:49.495Z,46.3
2017-04-13T02:29:49.208Z,46.59
2017-04-13T02:30:49.545Z,46.59
2017-04-13T02:31:49.582Z,46.49
2017-04-13T02:32:49.603Z,46.59
2017-04-13T02:33:49.627Z,46.4
2017-04-13T02:34:49.656Z,46.3
2017-04-13T02:35:49.368Z,46.3
2017-04-13T02:36:49.709Z,46.4
2017-04-13T02:37:49.421Z,46.4
2017-04-13T02:38:49.763Z,46.4
2017-04-13T02:39:49.792Z,46.4
2017-04-13T02:40:49.821Z,46.4
2017-04-13T02:41:49.842Z,46.2
2017-04-13T02:42:49.557Z,46.69
2017-04-13T02:43:49.903Z,46.78
2017-04-13T02:44:49.926Z,46.69
2017-04-13T02:45:49.643Z,46.2
2017-04-13T02:46:49.978Z,46.01
2017-04-13T02:47:50.005Z,46.4
2017-04-13T02:48:50.039Z,46.37
2017-04-13T02:49:50.069Z,46.37
2017-04-13T02:50:50.092Z,46.69
2017-04-13T02:51:50.116Z,46.66
2017-04-13T02:52:50.141Z,46.18
2017-04-13T02:53:50.174Z,45.72
2017-04-13T02:54:49.891Z,46.3
2017-04-13T02:55:50.227Z,46.37
2017-04-13T02:56:50.255Z,46.49
2017-04-13T02:57:50.279Z,45.89
2017-04-13T02:58:49.997Z,46.4
2017-04-13T02:59:50.338Z,46.18
2017-04-13T03:00:50.363Z,46.56
2017-04-13T03:01:50.394Z,46.37
2017-04-13T03:02:50.416Z,45.79
2017-04-13T03:03:50.133Z,46.3
2017-04-13T03:04:50.166Z,46.3
2017-04-13T03:05:50.495Z,46.59
2017-04-13T03:06:50.526Z,46.08
2017-04-13T03:07:50.552Z,46.18
2017-04-13T03:08:50.581Z,46.11
2017-04-13T03:09:50.298Z,45.79
2017-04-13T03:10:50.639Z,46.18
2017-04-13T03:11:50.659Z,45.43
2017-04-13T03:12:50.692Z,45.41
2017-04-13T03:13:50.716Z,46.08
2017-04-13T03:14:50.797Z,45.89
2017-04-13T03:15:50.490Z,45.89
2017-04-13T03:16:50.801Z,46.08
2017-04-13T03:17:50.831Z,46.08
2017-04-13T03:18:50.545Z,45.89
2017-04-13T03:19:50.883Z,45.99
2017-04-13T03:20:50.593Z,45.99
2017-04-13T03:21:50.627Z,45.89
2017-04-13T03:22:50.967Z,45.89
2017-04-13T03:23:50.994Z,46.08
2017-04-13T03:24:51.017Z,46.18
2017-04-13T03:25:51.046Z,45.7
2017-04-13T03:26:51.078Z,45.99
2017-04-13T03:27:51.099Z,45.99
2017-04-13T03:28:51.128Z,45.31
2017-04-13T03:29:51.153Z,45.79
2017-04-13T03:30:51.182Z,45.89
2017-04-13T03:31:50.899Z,45.51
2017-04-13T03:32:51.235Z,45.51
2017-04-13T03:33:50.948Z,45.7
2017-04-13T03:34:51.285Z,45.99
2017-04-13T03:35:51.313Z,45.41
2017-04-13T03:36:51.345Z,45.51
2017-04-13T03:37:51.378Z,46.18
2017-04-13T03:38:51.651Z,45.7
2017-04-13T03:39:51.428Z,45.51
2017-04-13T03:40:51.453Z,45.7
2017-04-13T03:41:51.482Z,45.99
2017-04-13T03:42:51.506Z,45.99
2017-04-13T03:43:51.479Z,45.79
2017-04-13T03:44:51.564Z,45.51
2017-04-13T03:45:51.588Z,45.51
2017-04-13T03:46:51.618Z,46.08
2017-04-13T03:47:51.641Z,45.7
2017-04-13T03:48:51.921Z,46.18
2017-04-13T03:49:51.696Z,45.51
2017-04-13T03:50:51.733Z,45.7
2017-04-13T03:51:51.749Z,45.79
2017-04-13T03:52:51.778Z,45.79
2017-04-13T03:53:52.060Z,45.51
2017-04-13T03:54:51.519Z,45.79
2017-04-13T03:55:51.547Z,45.51
2017-04-13T03:56:51.889Z,45.51
2017-04-13T03:57:51.916Z,45.99
2017-04-13T03:58:52.190Z,45.7
2017-04-13T03:59:51.653Z,45.41
2017-04-13T04:00:51.992Z,45.79
2017-04-13T04:01:51.709Z,45.6
2017-04-13T04:02:51.733Z,45.89
2017-04-13T04:03:52.780Z,45.6
2017-04-13T04:04:52.103Z,45.89
2017-04-13T04:05:52.131Z,45.12
2017-04-13T04:06:52.152Z,45.31
2017-04-13T04:07:52.187Z,45.41
2017-04-13T04:08:52.465Z,45.12
2017-04-13T04:09:52.235Z,45.21
2017-04-13T04:10:51.956Z,45.51
2017-04-13T04:11:52.293Z,45.6
2017-04-13T04:12:52.322Z,45.21
2017-04-13T04:13:52.593Z,45.41
2017-04-13T04:14:52.374Z,45.03
2017-04-13T04:15:52.456Z,45.21
2017-04-13T04:16:52.427Z,45.12
2017-04-13T04:17:52.461Z,45.51
2017-04-13T04:18:52.733Z,45.41
2017-04-13T04:19:52.504Z,45.51
2017-04-13T04:20:52.539Z,45.51
2017-04-13T04:21:52.569Z,45.21
2017-04-13T04:22:52.593Z,45.31
2017-04-13T04:23:52.865Z,45.21
2017-04-13T04:24:52.673Z,45.03
2017-04-13T04:25:52.358Z,45.31
2017-04-13T04:26:52.700Z,45.31
2017-04-13T04:27:52.728Z,45.21
2017-04-13T04:28:52.480Z,45.51
2017-04-13T04:29:52.765Z,45.31
2017-04-13T04:30:52.807Z,45.21
2017-04-13T04:31:52.835Z,45.31
2017-04-13T04:32:52.860Z,45.21
2017-04-13T04:33:52.576Z,45.21
2017-04-13T04:34:52.918Z,45.21
2017-04-13T04:35:52.941Z,45.21
2017-04-13T04:36:52.971Z,45.21
2017-04-13T04:37:52.996Z,45.12
2017-04-13T04:38:53.028Z,45.21
2017-04-13T04:39:53.044Z,45.31
2017-04-13T04:40:52.770Z,45.51
2017-04-13T04:41:52.791Z,45.31
2017-04-13T04:42:52.816Z,45.12
2017-04-13T04:43:52.850Z,45.31
2017-04-13T04:44:53.185Z,45.51
2017-04-13T04:45:53.210Z,45.31
2017-04-13T04:46:53.238Z,45.31
2017-04-13T04:47:52.955Z,45.21
2017-04-13T04:48:53.296Z,45.03
2017-04-13T04:49:53.320Z,45.31
2017-04-13T04:50:53.347Z,45.41
2017-04-13T04:51:53.375Z,45.31
2017-04-13T04:52:53.091Z,45.21
2017-04-13T04:53:53.437Z,45.12
2017-04-13T04:54:53.708Z,45.12
2017-04-13T04:55:53.486Z,45.21
2017-04-13T04:56:53.511Z,45.12
2017-04-13T04:57:53.540Z,45.12
2017-04-13T04:58:53.251Z,45.31
2017-04-13T04:59:53.580Z,45.03
2017-04-13T05:00:53.621Z,45.03
2017-04-13T05:01:53.646Z,44.93
2017-04-13T05:02:53.358Z,44.83
2017-04-13T05:03:53.699Z,44.35
2017-04-13T05:04:53.976Z,44.45
2017-04-13T05:05:53.748Z,44.23
2017-04-13T05:06:53.779Z,44.93
2017-04-13T05:07:53.805Z,45.12
2017-04-13T05:08:53.835Z,45.03
2017-04-13T05:09:53.796Z,45.03
2017-04-13T05:10:53.885Z,44.83
2017-04-13T05:11:53.917Z,44.83
2017-04-13T05:12:53.941Z,44.83
2017-04-13T05:13:53.659Z,44.73
2017-04-13T05:14:54.247Z,44.54
2017-04-13T05:15:53.709Z,44.54
2017-04-13T05:16:54.052Z,44.73
2017-04-13T05:17:54.069Z,44.54
2017-04-13T05:18:54.102Z,44.93
2017-04-13T05:19:54.380Z,44.83
2017-04-13T05:20:54.164Z,44.73
2017-04-13T05:21:54.189Z,44.83
2017-04-13T05:22:53.942Z,44.54
2017-04-13T05:23:54.234Z,44.83
2017-04-13T05:24:54.518Z,44.93
2017-04-13T05:25:54.291Z,44.81
2017-04-13T05:26:54.319Z,44.42
2017-04-13T05:27:54.345Z,44.73
2017-04-13T05:28:54.061Z,44.73
2017-04-13T05:29:54.646Z,44.83
2017-04-13T05:30:54.435Z,44.71
2017-04-13T05:31:54.141Z,44.71
2017-04-13T05:32:54.481Z,44.64
2017-04-13T05:33:54.505Z,44.71
2017-04-13T05:34:54.473Z,44.64
2017-04-13T05:35:54.248Z,44.83
2017-04-13T05:36:54.271Z,44.64
2017-04-13T05:37:54.613Z,44.64
2017-04-13T05:38:54.329Z,43.94
2017-04-13T05:39:54.921Z,44.42
2017-04-13T05:40:54.694Z,44.83
2017-04-13T05:41:54.723Z,44.9
2017-04-13T05:42:54.749Z,44.54
2017-04-13T05:43:54.777Z,44.52
2017-04-13T05:44:54.806Z,44.81
2017-04-13T05:45:54.830Z,44.62
2017-04-13T05:46:54.548Z,44.73
2017-04-13T05:47:54.877Z,44.52
2017-04-13T05:48:54.914Z,44.81
2017-04-13T05:49:54.938Z,44.54
2017-04-13T05:50:54.966Z,44.32
2017-04-13T05:51:54.683Z,44.25
2017-04-13T05:52:55.016Z,44.62
2017-04-13T05:53:54.736Z,44.73
2017-04-13T05:54:55.070Z,44.45
2017-04-13T05:55:54.783Z,44.25
2017-04-13T05:56:55.126Z,44.64
2017-04-13T05:57:55.151Z,44.73
2017-04-13T05:58:55.180Z,44.81
2017-04-13T05:59:55.208Z,44.73
2017-04-13T06:00:54.922Z,44.71
2017-04-13T06:01:55.262Z,44.83
2017-04-13T06:02:55.287Z,45.12
2017-04-13T06:03:55.316Z,44.52
2017-04-13T06:04:55.345Z,44.62
2017-04-13T06:05:55.368Z,45.03
2017-04-13T06:06:55.083Z,45.03
2017-04-13T06:07:55.426Z,45.12
2017-04-13T06:08:55.136Z,45
2017-04-13T06:09:55.481Z,45.03
2017-04-13T06:10:55.505Z,45.58
2017-04-13T06:11:55.530Z,45.31
2017-04-13T06:12:55.251Z,45.29
2017-04-13T06:13:55.270Z,45.58
2017-04-13T06:14:55.620Z,45.51
2017-04-13T06:15:55.641Z,45.58
2017-04-13T06:16:55.662Z,45.51
2017-04-13T06:17:55.698Z,45.31
2017-04-13T06:18:55.710Z,45.21
2017-04-13T06:19:55.436Z,45.29
2017-04-13T06:20:55.457Z,45.31
2017-04-13T06:21:55.801Z,45.31
2017-04-13T06:22:55.826Z,45.51
2017-04-13T06:23:55.542Z,45.2
2017-04-13T06:24:55.889Z,45.12
2017-04-13T06:25:55.908Z,45.51
2017-04-13T06:26:55.937Z,45.79
2017-04-13T06:27:55.954Z,45.6
2017-04-13T06:28:55.985Z,45.89
2017-04-13T06:29:56.015Z,45.12
2017-04-13T06:30:56.082Z,45.51
2017-04-13T06:31:56.073Z,45.79
2017-04-13T06:32:56.093Z,45.31
2017-04-13T06:33:56.125Z,45.51
2017-04-13T06:34:56.219Z,45.51
2017-04-13T06:35:56.179Z,45.99
2017-04-13T06:36:56.208Z,45.89
2017-04-13T06:37:56.231Z,45.41
2017-04-13T06:38:56.262Z,45.12
2017-04-13T06:39:56.291Z,45.41
2017-04-13T06:40:56.315Z,45.41
2017-04-13T06:41:56.339Z,45.41
2017-04-13T06:42:56.052Z,45.03
2017-04-13T06:43:56.393Z,45.03
2017-04-13T06:44:56.422Z,45.12
2017-04-13T06:45:56.138Z,45.31
2017-04-13T06:46:56.163Z,45.31
2017-04-13T06:47:56.503Z,45.41
2017-04-13T06:48:56.533Z,45.41
2017-04-13T06:49:56.242Z,45.12
2017-04-13T06:50:56.270Z,45.21
2017-04-13T06:51:56.611Z,45.99
2017-04-13T06:52:56.637Z,45.41
2017-04-13T06:53:56.664Z,44.54
2017-04-13T06:54:56.377Z,44.45
2017-04-13T06:55:56.722Z,43.87
2017-04-13T06:56:56.756Z,43.37
2017-04-13T06:57:56.768Z,43.65
2017-04-13T06:58:56.801Z,43.65
2017-04-13T06:59:56.821Z,44.13
2017-04-13T07:00:56.853Z,44.13
2017-04-13T07:01:56.566Z,44.32
2017-04-13T07:02:56.906Z,44.13
2017-04-13T07:03:56.932Z,44.32
2017-04-13T07:04:56.653Z,43.55
2017-04-13T07:05:56.679Z,43.37
2017-04-13T07:06:57.015Z,43.65
2017-04-13T07:07:57.047Z,43.55
2017-04-13T07:08:57.068Z,43.37
2017-04-13T07:09:57.097Z,42.79
2017-04-13T07:10:57.123Z,43.07
2017-04-13T07:11:57.150Z,43.37
2017-04-13T07:12:57.177Z,43.65
2017-04-13T07:13:57.206Z,43.75
2017-04-13T07:14:57.233Z,42.97
2017-04-13T07:15:57.256Z,42.88
2017-04-13T07:16:56.971Z,43.17
2017-04-13T07:17:57.314Z,43.07
2017-04-13T07:18:57.339Z,43.55
2017-04-13T07:19:57.365Z,43.75
2017-04-13T07:20:57.391Z,43.55
2017-04-13T07:21:57.105Z,44.04
2017-04-13T07:22:57.445Z,43.55
2017-04-13T07:23:57.471Z,44.13
2017-04-13T07:24:57.500Z,43.37
2017-04-13T07:25:57.521Z,43.37
2017-04-13T07:26:57.241Z,43.55
2017-04-13T07:27:57.270Z,43.55
2017-04-13T07:28:57.607Z,43.75
2017-04-13T07:29:57.639Z,44.04
2017-04-13T07:30:57.655Z,43.75
2017-04-13T07:31:57.376Z,43.75
2017-04-13T07:32:57.713Z,43.75
2017-04-13T07:33:57.743Z,43.94
2017-04-13T07:34:57.448Z,44.04
2017-04-13T07:35:57.735Z,43.65
2017-04-13T07:36:57.821Z,43.46
2017-04-13T07:37:57.850Z,43.27
2017-04-13T07:38:57.870Z,42.88
2017-04-13T07:39:57.898Z,43.37
2017-04-13T07:40:58.183Z,43.94
2017-04-13T07:41:57.956Z,43.65
2017-04-13T07:42:57.981Z,43.65
2017-04-13T07:43:57.697Z,44.04
2017-04-13T07:44:58.037Z,43.37
2017-04-13T07:45:57.998Z,43.85
2017-04-13T07:46:58.080Z,43.85
2017-04-13T07:47:58.122Z,43.75
2017-04-13T07:48:57.832Z,43.27
2017-04-13T07:49:58.170Z,43.17
2017-04-13T07:50:58.446Z,43.65
2017-04-13T07:51:58.224Z,43.75
2017-04-13T07:52:57.935Z,43.46
2017-04-13T07:53:58.275Z,43.27
2017-04-13T07:54:58.305Z,43.65
2017-04-13T07:55:58.579Z,43.37
2017-04-13T07:56:58.356Z,43.75
2017-04-13T07:57:58.385Z,43.65
2017-04-13T07:58:58.413Z,43.75
2017-04-13T07:59:58.437Z,43.75
2017-04-13T08:00:58.718Z,43.65
2017-04-13T08:01:58.492Z,43.37
2017-04-13T08:02:58.522Z,43.55
2017-04-13T08:03:58.541Z,42.97
2017-04-13T08:04:58.570Z,43.37
2017-04-13T08:05:58.853Z,43.75
2017-04-13T08:06:58.633Z,43.85
2017-04-13T08:07:58.345Z,43.27
2017-04-13T08:08:58.684Z,43.46
2017-04-13T08:09:58.708Z,42.69
2017-04-13T08:10:58.672Z,43.37
2017-04-13T08:11:58.762Z,42.88
2017-04-13T08:12:58.782Z,43.07
2017-04-13T08:13:58.815Z,42.79
2017-04-13T08:14:58.840Z,42.59
2017-04-13T08:15:59.120Z,43.07
2017-04-13T08:16:58.581Z,42.69
2017-04-13T08:17:58.915Z,43.17
2017-04-13T08:18:58.947Z,43.27
2017-04-13T08:19:58.979Z,42.69
2017-04-13T08:20:59.256Z,42.69
2017-04-13T08:21:59.029Z,41.92
2017-04-13T08:22:59.054Z,43.17
2017-04-13T08:23:58.775Z,43.07
2017-04-13T08:24:59.112Z,43.07
2017-04-13T08:25:59.384Z,42.3
2017-04-13T08:26:59.169Z,42.02
2017-04-13T08:27:59.190Z,43.27
2017-04-13T08:28:59.219Z,42.61
2017-04-13T08:29:59.248Z,42.32
2017-04-13T08:30:59.524Z,42.59
2017-04-13T08:31:59.301Z,43
2017-04-13T08:32:59.326Z,42.61
2017-04-13T08:33:59.042Z,42.32
2017-04-13T08:34:59.067Z,42.61
2017-04-13T08:35:59.655Z,42.61
2017-04-13T08:36:59.440Z,43.19
2017-04-13T08:37:59.461Z,43.19
2017-04-13T08:38:59.486Z,42.69
2017-04-13T08:39:59.514Z,42.59
2017-04-13T08:40:59.795Z,43.19
2017-04-13T08:41:59.570Z,42.52
2017-04-13T08:42:59.597Z,42.61
2017-04-13T08:43:59.626Z,42.71
2017-04-13T08:44:59.651Z,43.29
2017-04-13T08:45:59.619Z,42.13
2017-04-13T08:46:59.705Z,42.61
2017-04-13T08:47:59.733Z,42.61
2017-04-13T08:48:59.754Z,42.71
2017-04-13T08:49:59.783Z,42.61
2017-04-13T08:50:59.756Z,42.52
2017-04-13T08:51:59.524Z,42.71
2017-04-13T08:52:59.553Z,42.61
2017-04-13T08:53:59.578Z,43.19
2017-04-13T08:54:59.922Z,42.61
2017-04-13T08:56:00.199Z,42.71
2017-04-13T08:56:59.665Z,43.19
2017-04-13T08:57:59.693Z,42.61
2017-04-13T08:58:59.717Z,42.32
2017-04-13T09:00:00.058Z,42.71
2017-04-13T09:01:00.331Z,42.8
2017-04-13T09:01:59.801Z,42.52
2017-04-13T09:03:00.134Z,42.23
2017-04-13T09:04:00.163Z,42.52
2017-04-13T09:05:00.195Z,42.71
2017-04-13T09:06:00.469Z,42.52
2017-04-13T09:07:00.249Z,43.19
2017-04-13T09:08:00.271Z,42.42
2017-04-13T09:08:59.990Z,42.52
2017-04-13T09:10:00.010Z,42.11
2017-04-13T09:11:00.289Z,43.19
2017-04-13T09:12:00.379Z,43.17
2017-04-13T09:13:00.408Z,43.29
2017-04-13T09:14:00.147Z,43.17
2017-04-13T09:15:00.147Z,43.17
2017-04-13T09:16:00.742Z,42.79
2017-04-13T09:17:00.203Z,43.29
2017-04-13T09:18:00.232Z,43.58
2017-04-13T09:19:00.568Z,42.52
2017-04-13T09:20:00.589Z,43.38
2017-04-13T09:21:00.870Z,43.27
2017-04-13T09:22:00.659Z,42.52
2017-04-13T09:23:00.681Z,42.49
2017-04-13T09:24:00.749Z,42.69
2017-04-13T09:25:00.725Z,42.59
2017-04-13T09:26:00.698Z,43.27
2017-04-13T09:27:00.479Z,43.37
2017-04-13T09:28:00.812Z,42.21
2017-04-13T09:29:00.838Z,42.59
2017-04-13T09:30:00.864Z,43.27
2017-04-13T09:31:01.144Z,43.17
2017-04-13T09:32:00.922Z,42.79
2017-04-13T09:33:00.951Z,42.4
2017-04-13T09:34:00.971Z,42.23
2017-04-13T09:35:01.001Z,42.23
2017-04-13T09:36:01.311Z,42.23
2017-04-13T09:37:01.054Z,42.49
2017-04-13T09:38:00.794Z,42.49
2017-04-13T09:39:00.796Z,42.11
2017-04-13T09:40:01.136Z,42.32
2017-04-13T09:41:01.415Z,42.23
2017-04-13T09:42:00.878Z,42.42
2017-04-13T09:43:01.214Z,41.75
2017-04-13T09:44:01.243Z,42.52
2017-04-13T09:45:01.268Z,42.23
2017-04-13T09:46:01.234Z,42.32
2017-04-13T09:47:01.325Z,41.65
2017-04-13T09:48:01.355Z,42.03
2017-04-13T09:49:01.071Z,41.84
2017-04-13T09:50:01.407Z,42.52
2017-04-13T09:51:01.688Z,42.13
2017-04-13T09:52:01.149Z,42.42
2017-04-13T09:53:01.485Z,42.42
2017-04-13T09:54:01.515Z,42.42
2017-04-13T09:55:01.543Z,42.03
2017-04-13T09:56:01.823Z,42.42
2017-04-13T09:57:01.598Z,42.03
2017-04-13T09:58:01.641Z,42.42
2017-04-13T09:59:01.340Z,42.52
2017-04-13T10:00:01.678Z,42.42
2017-04-13T10:01:01.956Z,42.13
2017-04-13T10:02:01.422Z,42.23
2017-04-13T10:03:01.449Z,42.13
2017-04-13T10:04:01.478Z,42.03
2017-04-13T10:05:01.815Z,42.42
2017-04-13T10:06:01.837Z,42.23
2017-04-13T10:07:01.870Z,42.13
2017-04-13T10:08:01.897Z,41.82
2017-04-13T10:09:01.914Z,42.3
2017-04-13T10:10:01.950Z,42.11
2017-04-13T10:11:01.974Z,42.49
2017-04-13T10:12:02.004Z,42.21
2017-04-13T10:13:02.030Z,42.13
2017-04-13T10:14:02.057Z,42.03
2017-04-13T10:15:02.082Z,42.11
2017-04-13T10:16:02.110Z,42.3
2017-04-13T10:17:02.140Z,42.49
2017-04-13T10:18:02.161Z,42.4
2017-04-13T10:19:02.187Z,42.4
2017-04-13T10:20:02.210Z,42.3
2017-04-13T10:21:02.244Z,41.94
2017-04-13T10:22:02.275Z,42.52
2017-04-13T10:23:02.300Z,42.23
2017-04-13T10:24:02.329Z,42.32
2017-04-13T10:25:02.354Z,41.75
2017-04-13T10:26:02.383Z,42.13
2017-04-13T10:27:02.090Z,41.94
2017-04-13T10:28:02.436Z,42.52
2017-04-13T10:29:02.164Z,42.03
2017-04-13T10:30:02.493Z,42.03
2017-04-13T10:31:02.514Z,41.65
2017-04-13T10:32:02.226Z,41.46
2017-04-13T10:33:02.575Z,41.36
2017-04-13T10:34:02.597Z,41.65
2017-04-13T10:35:02.621Z,41.65
2017-04-13T10:36:02.654Z,42.13
2017-04-13T10:37:02.674Z,42.13
2017-04-13T10:38:02.707Z,41.65
2017-04-13T10:39:02.415Z,41.55
2017-04-13T10:40:02.449Z,41.67
2017-04-13T10:41:02.790Z,41.28
2017-04-13T10:42:02.810Z,41.28
2017-04-13T10:43:02.843Z,41.38
2017-04-13T10:44:02.871Z,41.28
2017-04-13T10:45:02.897Z,41.48
2017-04-13T10:46:02.920Z,40.8
2017-04-13T10:47:02.949Z,40.9
2017-04-13T10:48:02.668Z,40.7
2017-04-13T10:49:03.009Z,41.28
2017-04-13T10:50:03.036Z,41.48
2017-04-13T10:51:03.061Z,41.48
2017-04-13T10:52:03.082Z,41.57
2017-04-13T10:53:02.850Z,41.67
2017-04-13T10:54:02.831Z,41.67
2017-04-13T10:55:03.185Z,40.9
2017-04-13T10:56:03.202Z,41.28
2017-04-13T10:57:02.913Z,40.7
2017-04-13T10:58:02.941Z,41.28
2017-04-13T10:59:03.282Z,41.38
2017-04-13T11:00:03.304Z,41.38
2017-04-13T11:01:03.388Z,40.9
2017-04-13T11:02:03.360Z,41.48
2017-04-13T11:03:03.380Z,40.8
2017-04-13T11:04:03.419Z,40.61
2017-04-13T11:05:03.140Z,40.8
2017-04-13T11:06:03.469Z,41.48
2017-04-13T11:07:03.196Z,41.67
2017-04-13T11:08:03.521Z,41.67
2017-04-13T11:09:03.592Z,41.48
2017-04-13T11:10:03.582Z,41.57
2017-04-13T11:11:03.609Z,41.77
2017-04-13T11:12:03.889Z,41.57
2017-04-13T11:13:03.670Z,41.48
2017-04-13T11:14:03.694Z,41.48
2017-04-13T11:15:03.727Z,41.38
2017-04-13T11:16:03.743Z,40.8
2017-04-13T11:17:03.716Z,40.9
2017-04-13T11:18:03.797Z,41.38
2017-04-13T11:19:03.513Z,41.48
2017-04-13T11:20:03.859Z,41.48
2017-04-13T11:21:03.896Z,41.38
2017-04-13T11:22:04.160Z,41.38
2017-04-13T11:23:03.937Z,41.28
2017-04-13T11:24:03.970Z,40.99
2017-04-13T11:25:03.990Z,41.48
2017-04-13T11:26:04.024Z,41.19
2017-04-13T11:27:04.308Z,41.28
2017-04-13T11:28:04.079Z,41.28
2017-04-13T11:29:03.794Z,41.48
2017-04-13T11:30:04.134Z,41.38
2017-04-13T11:31:03.846Z,41.28
2017-04-13T11:32:04.441Z,41.09
2017-04-13T11:33:04.216Z,40.8
2017-04-13T11:34:04.238Z,40.9
2017-04-13T11:35:04.269Z,41.11
2017-04-13T11:36:04.300Z,40.9
2017-04-13T11:37:04.574Z,40.51
2017-04-13T11:38:04.353Z,40.22
2017-04-13T11:39:04.384Z,39.76
2017-04-13T11:40:04.093Z,40.12
2017-04-13T11:41:04.434Z,40.8
2017-04-13T11:42:04.711Z,40.51
2017-04-13T11:43:04.493Z,40.22
2017-04-13T11:44:04.518Z,39.95
2017-04-13T11:45:04.239Z,39.54
2017-04-13T11:46:04.570Z,39.64
2017-04-13T11:47:04.849Z,39.18
2017-04-13T11:48:04.315Z,38.99
2017-04-13T11:49:04.657Z,38.99
2017-04-13T11:50:04.376Z,38.7
2017-04-13T11:51:04.710Z,39.18
2017-04-13T11:52:04.678Z,38.91
2017-04-13T11:53:04.452Z,38.81
2017-04-13T11:54:04.484Z,38.91
2017-04-13T11:55:04.828Z,38.53
2017-04-13T11:56:04.852Z,37.77
2017-04-13T11:57:05.127Z,37.96
2017-04-13T11:58:04.902Z,37.48
2017-04-13T11:59:04.628Z,37.21
2017-04-13T12:00:04.978Z,36.63
2017-04-13T12:01:04.994Z,36.36
2017-04-13T12:02:04.704Z,35.78
2017-04-13T12:03:05.045Z,35.88
2017-04-13T12:04:05.076Z,35.88
2017-04-13T12:05:05.109Z,35.39
2017-04-13T12:06:05.133Z,36.08
2017-04-13T12:07:05.166Z,35.99
2017-04-13T12:08:05.191Z,35.78
2017-04-13T12:09:05.220Z,35.89
2017-04-13T12:10:05.247Z,35.31
2017-04-13T12:11:04.965Z,35.41
2017-04-13T12:12:04.998Z,35.29
2017-04-13T12:13:05.338Z,35.88
2017-04-13T12:14:05.367Z,35.88
2017-04-13T12:15:05.396Z,35.88
2017-04-13T12:16:05.113Z,36.26
2017-04-13T12:17:05.142Z,35.49
2017-04-13T12:18:05.495Z,35.88
2017-04-13T12:19:05.198Z,35.78
2017-04-13T12:20:05.223Z,35.88
2017-04-13T12:21:05.570Z,35.78
2017-04-13T12:22:05.601Z,35.78
2017-04-13T12:23:05.630Z,35.68
2017-04-13T12:24:05.374Z,35.66
2017-04-13T12:25:05.367Z,35.37
2017-04-13T12:26:05.712Z,35.08
2017-04-13T12:27:05.741Z,35.18
2017-04-13T12:28:05.766Z,35.76
2017-04-13T12:29:05.791Z,35.47
2017-04-13T12:30:05.511Z,35.1
2017-04-13T12:31:05.539Z,35
2017-04-13T12:32:05.883Z,35.1
2017-04-13T12:33:05.913Z,34.25
2017-04-13T12:34:05.933Z,34.91
2017-04-13T12:35:05.967Z,35.12
2017-04-13T12:36:05.999Z,34.25
2017-04-13T12:37:06.026Z,33.86
2017-04-13T12:38:06.060Z,34.34
2017-04-13T12:39:06.081Z,33.86
2017-04-13T12:40:06.109Z,34.23
2017-04-13T12:41:06.142Z,34.33
2017-04-13T12:42:06.167Z,34.42
2017-04-13T12:43:06.200Z,34.42
2017-04-13T12:44:06.233Z,34.04
2017-04-13T12:45:06.262Z,34.04
2017-04-13T12:46:06.292Z,34.33
2017-04-13T12:47:06.007Z,34.42
2017-04-13T12:48:06.348Z,34.42
2017-04-13T12:49:06.376Z,34.52
2017-04-13T12:50:06.098Z,34.05
2017-04-13T12:51:06.436Z,32.89
2017-04-13T12:52:06.154Z,32.89
2017-04-13T12:53:06.495Z,32.71
2017-04-13T12:54:06.523Z,32.62
2017-04-13T12:55:06.554Z,32.33
2017-04-13T12:56:06.582Z,32.42